sensor_id;sensor_type;location;lat;lon;timestamp;pressure;altitude;pressure_sealevel;temperature;humidity
58975;BME280;44751;52.236;5.178;2022-09-27T00:01:03;99544.00;;;9.73;100.00
58975;BME280;44751;52.236;5.178;2022-09-27T00:03:30;99553.53;;;9.76;100.00
58975;BME280;44751;52.236;5.178;2022-09-27T00:06:06;99551.69;;;9.69;100.00
58975;BME280;44751;52.236;5.178;2022-09-27T00:08:36;99547.09;;;9.70;100.00
58975;BME280;44751;52.236;5.178;2022-09-27T00:11:05;99546.50;;;9.61;100.00
58975;BME280;44751;52.236;5.178;2022-09-27T00:13:33;99542.31;;;9.52;100.00
58975;BME280;44751;52.236;5.178;2022-09-27T00:16:02;99549.53;;;9.38;100.00
58975;BME280;44751;52.236;5.178;2022-09-27T00:18:33;99544.78;;;9.40;100.00
58975;BME280;44751;52.236;5.178;2022-09-27T00:21:09;99542.09;;;9.40;100.00
58975;BME280;44751;52.236;5.178;2022-09-27T00:23:39;99543.72;;;9.27;100.00
58975;BME280;44751;52.236;5.178;2022-09-27T00:26:11;99539.34;;;9.13;100.00
58975;BME280;44751;52.236;5.178;2022-09-27T00:28:39;99528.75;;;9.11;100.00
58975;BME280;44751;52.236;5.178;2022-09-27T00:31:28;99547.00;;;9.16;100.00
58975;BME280;44751;52.236;5.178;2022-09-27T00:33:56;99544.09;;;9.11;100.00
58975;BME280;44751;52.236;5.178;2022-09-27T00:36:25;99538.72;;;9.11;100.00
58975;BME280;44751;52.236;5.178;2022-09-27T00:38:52;99544.09;;;9.04;100.00
58975;BME280;44751;52.236;5.178;2022-09-27T00:41:22;99543.66;;;9.07;100.00
58975;BME280;44751;52.236;5.178;2022-09-27T00:43:52;99541.81;;;9.08;100.00
58975;BME280;44751;52.236;5.178;2022-09-27T00:46:24;99539.06;;;8.94;100.00
58975;BME280;44751;52.236;5.178;2022-09-27T00:49:18;99548.59;;;8.97;100.00
58975;BME280;44751;52.236;5.178;2022-09-27T00:51:54;99544.47;;;8.94;100.00
58975;BME280;44751;52.236;5.178;2022-09-27T00:54:25;99547.16;;;8.94;100.00
58975;BME280;44751;52.236;5.178;2022-09-27T00:56:54;99553.97;;;8.90;100.00
58975;BME280;44751;52.236;5.178;2022-09-27T00:59:26;99552.44;;;8.81;100.00
58975;BME280;44751;52.236;5.178;2022-09-27T01:01:55;99551.03;;;8.85;100.00
58975;BME280;44751;52.236;5.178;2022-09-27T01:04:25;99554.75;;;8.84;100.00
58975;BME280;44751;52.236;5.178;2022-09-27T01:06:53;99550.22;;;8.84;100.00
58975;BME280;44751;52.236;5.178;2022-09-27T01:09:20;99550.44;;;8.89;100.00
58975;BME280;44751;52.236;5.178;2022-09-27T01:11:54;99555.59;;;8.84;100.00
58975;BME280;44751;52.236;5.178;2022-09-27T01:26:04;99563.28;;;8.94;100.00
58975;BME280;44751;52.236;5.178;2022-09-27T01:28:50;99585.00;;;8.93;100.00
58975;BME280;44751;52.236;5.178;2022-09-27T01:31:29;99576.38;;;9.04;100.00
58975;BME280;44751;52.236;5.178;2022-09-27T01:37:09;99562.75;;;9.12;100.00
58975;BME280;44751;52.236;5.178;2022-09-27T01:40:03;99557.31;;;9.06;100.00
58975;BME280;44751;52.236;5.178;2022-09-27T01:42:51;99560.25;;;9.17;100.00
58975;BME280;44751;52.236;5.178;2022-09-27T01:45:30;99554.41;;;9.07;100.00
58975;BME280;44751;52.236;5.178;2022-09-27T01:48:18;99562.66;;;8.92;100.00
58975;BME280;44751;52.236;5.178;2022-09-27T01:53:41;99566.75;;;8.88;100.00
58975;BME280;44751;52.236;5.178;2022-09-27T01:56:18;99570.03;;;8.83;100.00
58975;BME280;44751;52.236;5.178;2022-09-27T01:59:01;99566.56;;;8.89;100.00
58975;BME280;44751;52.236;5.178;2022-09-27T02:01:34;99551.22;;;8.83;100.00
58975;BME280;44751;52.236;5.178;2022-09-27T02:04:07;99555.78;;;8.83;100.00
58975;BME280;44751;52.236;5.178;2022-09-27T02:06:40;99551.19;;;8.76;100.00
58975;BME280;44751;52.236;5.178;2022-09-27T02:09:19;99543.78;;;8.78;100.00
58975;BME280;44751;52.236;5.178;2022-09-27T02:11:53;99562.63;;;8.85;100.00
58975;BME280;44751;52.236;5.178;2022-09-27T02:14:24;99550.00;;;8.86;100.00
58975;BME280;44751;52.236;5.178;2022-09-27T02:17:06;99551.66;;;8.87;100.00
58975;BME280;44751;52.236;5.178;2022-09-27T02:20:00;99556.78;;;8.82;100.00
58975;BME280;44751;52.236;5.178;2022-09-27T02:22:53;99559.94;;;8.85;100.00
58975;BME280;44751;52.236;5.178;2022-09-27T02:25:27;99552.03;;;8.77;100.00
58975;BME280;44751;52.236;5.178;2022-09-27T02:28:24;99560.50;;;8.74;100.00
58975;BME280;44751;52.236;5.178;2022-09-27T02:30:57;99552.63;;;8.72;100.00
58975;BME280;44751;52.236;5.178;2022-09-27T02:33:36;99548.28;;;8.71;100.00
58975;BME280;44751;52.236;5.178;2022-09-27T02:36:10;99554.69;;;8.70;100.00
58975;BME280;44751;52.236;5.178;2022-09-27T02:38:37;99557.97;;;8.65;100.00
58975;BME280;44751;52.236;5.178;2022-09-27T02:41:12;99559.81;;;8.65;100.00
58975;BME280;44751;52.236;5.178;2022-09-27T02:43:45;99548.22;;;8.58;100.00
58975;BME280;44751;52.236;5.178;2022-09-27T02:46:38;99548.09;;;8.73;100.00
58975;BME280;44751;52.236;5.178;2022-09-27T02:49:33;99555.53;;;8.77;100.00
58975;BME280;44751;52.236;5.178;2022-09-27T02:55:25;99553.88;;;8.76;100.00
58975;BME280;44751;52.236;5.178;2022-09-27T03:06:30;99543.09;;;8.70;100.00
58975;BME280;44751;52.236;5.178;2022-09-27T03:09:01;99538.41;;;8.78;100.00
58975;BME280;44751;52.236;5.178;2022-09-27T03:11:27;99539.66;;;8.89;100.00
58975;BME280;44751;52.236;5.178;2022-09-27T03:13:54;99541.50;;;8.82;100.00
58975;BME280;44751;52.236;5.178;2022-09-27T03:16:21;99535.69;;;8.78;100.00
58975;BME280;44751;52.236;5.178;2022-09-27T03:18:50;99531.78;;;8.81;100.00
58975;BME280;44751;52.236;5.178;2022-09-27T03:21:18;99535.34;;;8.88;100.00
58975;BME280;44751;52.236;5.178;2022-09-27T03:23:45;99547.28;;;8.79;100.00
58975;BME280;44751;52.236;5.178;2022-09-27T03:26:12;99545.47;;;8.93;100.00
58975;BME280;44751;52.236;5.178;2022-09-27T03:28:39;99550.63;;;8.88;100.00
58975;BME280;44751;52.236;5.178;2022-09-27T03:31:06;99539.88;;;8.88;100.00
58975;BME280;44751;52.236;5.178;2022-09-27T03:33:33;99538.03;;;8.88;100.00
58975;BME280;44751;52.236;5.178;2022-09-27T03:36:03;99546.09;;;8.88;100.00
58975;BME280;44751;52.236;5.178;2022-09-27T03:38:29;99546.09;;;8.88;100.00
58975;BME280;44751;52.236;5.178;2022-09-27T03:40:56;99553.50;;;8.80;100.00
58975;BME280;44751;52.236;5.178;2022-09-27T03:43:23;99556.56;;;8.76;100.00
58975;BME280;44751;52.236;5.178;2022-09-27T03:45:50;99560.25;;;8.62;100.00
58975;BME280;44751;52.236;5.178;2022-09-27T03:48:23;99558.53;;;8.54;100.00
58975;BME280;44751;52.236;5.178;2022-09-27T03:50:50;99569.97;;;8.63;100.00
58975;BME280;44751;52.236;5.178;2022-09-27T03:53:17;99570.38;;;8.67;100.00
58975;BME280;44751;52.236;5.178;2022-09-27T03:55:44;99560.84;;;8.64;100.00
58975;BME280;44751;52.236;5.178;2022-09-27T03:58:15;99574.31;;;8.64;100.00
58975;BME280;44751;52.236;5.178;2022-09-27T04:00:41;99561.03;;;8.56;100.00
58975;BME280;44751;52.236;5.178;2022-09-27T04:03:08;99562.13;;;8.68;100.00
58975;BME280;44751;52.236;5.178;2022-09-27T04:05:35;99552.78;;;8.64;100.00
58975;BME280;44751;52.236;5.178;2022-09-27T04:08:01;99559.19;;;8.63;100.00
58975;BME280;44751;52.236;5.178;2022-09-27T04:10:32;99553.63;;;8.64;100.00
58975;BME280;44751;52.236;5.178;2022-09-27T04:13:00;99555.25;;;8.59;100.00
58975;BME280;44751;52.236;5.178;2022-09-27T04:15:27;99550.97;;;8.43;100.00
58975;BME280;44751;52.236;5.178;2022-09-27T04:17:54;99552.34;;;8.54;100.00
58975;BME280;44751;52.236;5.178;2022-09-27T04:20:20;99562.53;;;8.36;100.00
58975;BME280;44751;52.236;5.178;2022-09-27T04:22:50;99561.25;;;8.32;100.00
58975;BME280;44751;52.236;5.178;2022-09-27T04:25:17;99552.59;;;8.37;100.00
58975;BME280;44751;52.236;5.178;2022-09-27T04:27:44;99562.22;;;8.24;100.00
58975;BME280;44751;52.236;5.178;2022-09-27T04:30:12;99559.16;;;8.27;100.00
58975;BME280;44751;52.236;5.178;2022-09-27T04:32:45;99554.28;;;8.38;100.00
58975;BME280;44751;52.236;5.178;2022-09-27T04:35:13;99553.63;;;8.36;100.00
58975;BME280;44751;52.236;5.178;2022-09-27T04:38:02;99559.88;;;8.14;100.00
58975;BME280;44751;52.236;5.178;2022-09-27T04:40:29;99552.84;;;8.13;100.00
58975;BME280;44751;52.236;5.178;2022-09-27T04:42:55;99562.84;;;8.20;100.00
58975;BME280;44751;52.236;5.178;2022-09-27T04:45:22;99570.47;;;8.23;100.00
58975;BME280;44751;52.236;5.178;2022-09-27T04:47:49;99560.81;;;8.29;100.00
58975;BME280;44751;52.236;5.178;2022-09-27T04:50:17;99573.09;;;8.38;100.00
58975;BME280;44751;52.236;5.178;2022-09-27T04:52:51;99558.81;;;8.37;100.00
58975;BME280;44751;52.236;5.178;2022-09-27T04:55:19;99559.09;;;8.49;100.00
58975;BME280;44751;52.236;5.178;2022-09-27T04:57:47;99553.03;;;8.40;100.00
58975;BME280;44751;52.236;5.178;2022-09-27T05:00:16;99563.59;;;8.42;100.00
58975;BME280;44751;52.236;5.178;2022-09-27T05:02:47;99549.16;;;8.50;100.00
58975;BME280;44751;52.236;5.178;2022-09-27T05:05:14;99565.59;;;8.33;100.00
58975;BME280;44751;52.236;5.178;2022-09-27T05:07:43;99570.41;;;8.38;100.00
58975;BME280;44751;52.236;5.178;2022-09-27T05:10:16;99556.88;;;8.53;100.00
58975;BME280;44751;52.236;5.178;2022-09-27T05:12:43;99563.16;;;8.38;100.00
58975;BME280;44751;52.236;5.178;2022-09-27T05:15:32;99557.75;;;8.32;100.00
58975;BME280;44751;52.236;5.178;2022-09-27T05:18:00;99568.25;;;8.26;100.00
58975;BME280;44751;52.236;5.178;2022-09-27T05:20:27;99563.03;;;8.18;100.00
58975;BME280;44751;52.236;5.178;2022-09-27T05:22:54;99578.34;;;8.24;100.00
58975;BME280;44751;52.236;5.178;2022-09-27T05:25:21;99563.78;;;8.12;100.00
58975;BME280;44751;52.236;5.178;2022-09-27T05:27:51;99565.91;;;8.17;100.00
58975;BME280;44751;52.236;5.178;2022-09-27T05:30:18;99573.38;;;8.21;100.00
58975;BME280;44751;52.236;5.178;2022-09-27T05:32:45;99571.50;;;8.22;100.00
58975;BME280;44751;52.236;5.178;2022-09-27T05:37:55;99567.59;;;8.24;100.00
58975;BME280;44751;52.236;5.178;2022-09-27T05:50:58;99572.41;;;8.58;100.00
58975;BME280;44751;52.236;5.178;2022-09-27T05:53:27;99591.66;;;8.61;100.00
58975;BME280;44751;52.236;5.178;2022-09-27T05:56:03;99587.06;;;8.55;100.00
58975;BME280;44751;52.236;5.178;2022-09-27T05:58:30;99593.94;;;8.58;100.00
58975;BME280;44751;52.236;5.178;2022-09-27T06:01:00;99591.97;;;8.51;100.00
58975;BME280;44751;52.236;5.178;2022-09-27T06:03:36;99598.84;;;8.54;100.00
58975;BME280;44751;52.236;5.178;2022-09-27T06:08:47;99596.94;;;8.48;100.00
58975;BME280;44751;52.236;5.178;2022-09-27T06:11:18;99596.38;;;8.59;100.00
58975;BME280;44751;52.236;5.178;2022-09-27T06:13:48;99595.97;;;8.56;100.00
58975;BME280;44751;52.236;5.178;2022-09-27T06:16:15;99595.97;;;8.56;100.00
58975;BME280;44751;52.236;5.178;2022-09-27T06:18:44;99591.50;;;8.70;100.00
58975;BME280;44751;52.236;5.178;2022-09-27T06:21:11;99596.03;;;8.69;100.00
58975;BME280;44751;52.236;5.178;2022-09-27T06:23:38;99599.22;;;8.80;100.00
58975;BME280;44751;52.236;5.178;2022-09-27T06:26:06;99602.56;;;8.88;100.00
58975;BME280;44751;52.236;5.178;2022-09-27T06:28:33;99614.94;;;8.83;100.00
58975;BME280;44751;52.236;5.178;2022-09-27T06:31:00;99620.91;;;8.78;100.00
58975;BME280;44751;52.236;5.178;2022-09-27T06:33:28;99632.06;;;8.75;100.00
58975;BME280;44751;52.236;5.178;2022-09-27T06:35:55;99629.53;;;8.67;100.00
58975;BME280;44751;52.236;5.178;2022-09-27T06:38:22;99625.56;;;8.62;100.00
58975;BME280;44751;52.236;5.178;2022-09-27T06:40:50;99626.66;;;8.68;100.00
58975;BME280;44751;52.236;5.178;2022-09-27T06:43:18;99623.19;;;8.74;100.00
58975;BME280;44751;52.236;5.178;2022-09-27T06:45:48;99627.72;;;8.74;100.00
58975;BME280;44751;52.236;5.178;2022-09-27T06:48:15;99620.91;;;8.78;100.00
58975;BME280;44751;52.236;5.178;2022-09-27T06:50:44;99619.94;;;8.86;100.00
58975;BME280;44751;52.236;5.178;2022-09-27T06:53:12;99613.34;;;8.88;100.00
58975;BME280;44751;52.236;5.178;2022-09-27T06:55:39;99614.44;;;9.08;100.00
58975;BME280;44751;52.236;5.178;2022-09-27T06:58:09;99606.34;;;9.01;100.00
58975;BME280;44751;52.236;5.178;2022-09-27T07:00:53;99619.25;;;9.12;100.00
58975;BME280;44751;52.236;5.178;2022-09-27T07:03:23;99617.63;;;9.18;100.00
58975;BME280;44751;52.236;5.178;2022-09-27T07:05:59;99626.97;;;9.36;100.00
58975;BME280;44751;52.236;5.178;2022-09-27T07:08:26;99628.84;;;9.35;100.00
58975;BME280;44751;52.236;5.178;2022-09-27T07:11:04;99636.72;;;9.37;100.00
58975;BME280;44751;52.236;5.178;2022-09-27T07:13:32;99635.41;;;9.19;100.00
58975;BME280;44751;52.236;5.178;2022-09-27T07:16:01;99636.03;;;9.21;100.00
58975;BME280;44751;52.236;5.178;2022-09-27T07:18:28;99633.91;;;9.10;100.00
58975;BME280;44751;52.236;5.178;2022-09-27T07:20:54;99628.94;;;9.07;100.00
58975;BME280;44751;52.236;5.178;2022-09-27T07:23:28;99626.44;;;9.05;100.00
58975;BME280;44751;52.236;5.178;2022-09-27T07:25:55;99626.09;;;9.15;100.00
58975;BME280;44751;52.236;5.178;2022-09-27T07:28:25;99630.28;;;9.38;100.00
58975;BME280;44751;52.236;5.178;2022-09-27T07:30:59;99629.50;;;9.51;100.00
58975;BME280;44751;52.236;5.178;2022-09-27T07:33:45;99629.72;;;9.56;100.00
58975;BME280;44751;52.236;5.178;2022-09-27T07:36:31;99627.66;;;9.51;100.00
58975;BME280;44751;52.236;5.178;2022-09-27T07:42:15;99639.66;;;9.49;100.00
58975;BME280;44751;52.236;5.178;2022-09-27T07:45:04;99640.28;;;9.51;100.00
58975;BME280;44751;52.236;5.178;2022-09-27T08:00:28;99650.06;;;9.59;100.00
58975;BME280;44751;52.236;5.178;2022-09-27T08:03:15;99649.28;;;9.85;100.00
58975;BME280;44751;52.236;5.178;2022-09-27T08:05:44;99656.13;;;9.94;100.00
58975;BME280;44751;52.236;5.178;2022-09-27T08:08:12;99658.63;;;9.96;100.00
58975;BME280;44751;52.236;5.178;2022-09-27T08:10:41;99656.78;;;10.10;100.00
58975;BME280;44751;52.236;5.178;2022-09-27T08:13:14;99661.56;;;10.22;100.00
58975;BME280;44751;52.236;5.178;2022-09-27T08:15:44;99683.72;;;10.17;100.00
58975;BME280;44751;52.236;5.178;2022-09-27T08:18:11;99709.63;;;9.98;100.00
58975;BME280;44751;52.236;5.178;2022-09-27T08:20:37;99701.28;;;9.79;100.00
58975;BME280;44751;52.236;5.178;2022-09-27T08:23:07;99696.00;;;9.50;100.00
58975;BME280;44751;52.236;5.178;2022-09-27T08:25:33;99691.16;;;9.32;100.00
58975;BME280;44751;52.236;5.178;2022-09-27T08:28:02;99693.84;;;9.32;100.00
58975;BME280;44751;52.236;5.178;2022-09-27T08:30:30;99693.69;;;9.40;100.00
58975;BME280;44751;52.236;5.178;2022-09-27T08:32:58;99678.41;;;9.54;100.00
58975;BME280;44751;52.236;5.178;2022-09-27T08:35:30;99687.19;;;9.77;100.00
58975;BME280;44751;52.236;5.178;2022-09-27T08:37:59;99690.50;;;9.86;100.00
58975;BME280;44751;52.236;5.178;2022-09-27T08:40:49;99680.38;;;9.94;100.00
58975;BME280;44751;52.236;5.178;2022-09-27T08:48:31;99686.38;;;9.90;100.00
58975;BME280;44751;52.236;5.178;2022-09-27T08:51:01;99680.78;;;9.85;100.00
58975;BME280;44751;52.236;5.178;2022-09-27T08:53:44;99693.84;;;9.88;100.00
58975;BME280;44751;52.236;5.178;2022-09-27T08:56:13;99694.00;;;9.73;100.00
58975;BME280;44751;52.236;5.178;2022-09-27T08:59:03;99687.94;;;9.57;100.00
58975;BME280;44751;52.236;5.178;2022-09-27T09:01:36;99686.34;;;9.69;100.00
58975;BME280;44751;52.236;5.178;2022-09-27T09:04:03;99692.13;;;9.73;100.00
58975;BME280;44751;52.236;5.178;2022-09-27T09:09:30;99701.06;;;9.74;100.00
58975;BME280;44751;52.236;5.178;2022-09-27T09:15:02;99693.97;;;9.66;100.00
58975;BME280;44751;52.236;5.178;2022-09-27T09:17:51;99695.00;;;9.58;100.00
58975;BME280;44751;52.236;5.178;2022-09-27T09:31:39;99713.75;;;9.93;100.00
58975;BME280;44751;52.236;5.178;2022-09-27T09:34:48;99716.66;;;9.92;100.00
58975;BME280;44751;52.236;5.178;2022-09-27T09:40:20;99723.66;;;9.79;100.00
58975;BME280;44751;52.236;5.178;2022-09-27T09:42:57;99723.69;;;9.93;100.00
58975;BME280;44751;52.236;5.178;2022-09-27T09:46:12;99731.13;;;9.84;100.00
58975;BME280;44751;52.236;5.178;2022-09-27T09:48:43;99729.06;;;9.79;100.00
58975;BME280;44751;52.236;5.178;2022-09-27T09:51:19;99724.63;;;9.65;100.00
58975;BME280;44751;52.236;5.178;2022-09-27T09:53:59;99729.41;;;9.63;100.00
58975;BME280;44751;52.236;5.178;2022-09-27T09:56:32;99731.00;;;9.50;100.00
58975;BME280;44751;52.236;5.178;2022-09-27T09:59:01;99724.75;;;9.43;100.00
58975;BME280;44751;52.236;5.178;2022-09-27T10:01:39;99720.59;;;9.40;100.00
58975;BME280;44751;52.236;5.178;2022-09-27T10:04:11;99719.28;;;9.29;100.00
58975;BME280;44751;52.236;5.178;2022-09-27T10:06:40;99723.56;;;9.52;100.00
58975;BME280;44751;52.236;5.178;2022-09-27T10:09:11;99710.47;;;9.49;100.00
58975;BME280;44751;52.236;5.178;2022-09-27T10:11:40;99713.88;;;9.65;100.00
58975;BME280;44751;52.236;5.178;2022-09-27T10:14:10;99704.09;;;9.57;100.00
58975;BME280;44751;52.236;5.178;2022-09-27T10:16:39;99700.34;;;9.51;100.00
58975;BME280;44751;52.236;5.178;2022-09-27T10:19:22;99702.28;;;9.71;100.00
58975;BME280;44751;52.236;5.178;2022-09-27T10:21:53;99692.13;;;9.66;100.00
58975;BME280;44751;52.236;5.178;2022-09-27T10:24:27;99694.16;;;9.64;100.00
58975;BME280;44751;52.236;5.178;2022-09-27T10:26:58;99693.63;;;9.82;100.00
58975;BME280;44751;52.236;5.178;2022-09-27T10:29:31;99692.63;;;10.04;100.00
58975;BME280;44751;52.236;5.178;2022-09-27T10:32:02;99693.66;;;10.03;100.00
58975;BME280;44751;52.236;5.178;2022-09-27T10:34:32;99701.53;;;10.04;100.00
58975;BME280;44751;52.236;5.178;2022-09-27T10:39:42;99709.13;;;9.74;100.00
58975;BME280;44751;52.236;5.178;2022-09-27T10:42:33;99707.13;;;9.89;100.00
58975;BME280;44751;52.236;5.178;2022-09-27T10:45:21;99707.91;;;9.83;100.00
58975;BME280;44751;52.236;5.178;2022-09-27T10:47:50;99703.66;;;9.53;100.00
58975;BME280;44751;52.236;5.178;2022-09-27T10:50:25;99706.63;;;9.65;100.00
58975;BME280;44751;52.236;5.178;2022-09-27T10:53:05;99710.00;;;9.81;100.00
58975;BME280;44751;52.236;5.178;2022-09-27T10:55:38;99722.50;;;9.53;100.00
58975;BME280;44751;52.236;5.178;2022-09-27T10:58:05;99728.09;;;9.52;100.00
58975;BME280;44751;52.236;5.178;2022-09-27T11:00:35;99724.94;;;9.41;100.00
58975;BME280;44751;52.236;5.178;2022-09-27T11:03:14;99731.28;;;9.27;100.00
58975;BME280;44751;52.236;5.178;2022-09-27T11:05:41;99735.50;;;9.36;100.00
58975;BME280;44751;52.236;5.178;2022-09-27T11:11:13;99728.28;;;10.06;100.00
58975;BME280;44751;52.236;5.178;2022-09-27T11:13:57;99727.91;;;10.09;100.00
58975;BME280;44751;52.236;5.178;2022-09-27T11:22:07;99709.41;;;9.99;100.00
58975;BME280;44751;52.236;5.178;2022-09-27T11:25:14;99708.78;;;10.04;100.00
58975;BME280;44751;52.236;5.178;2022-09-27T11:30:15;99700.69;;;9.90;100.00
58975;BME280;44751;52.236;5.178;2022-09-27T11:38:17;99707.50;;;9.79;100.00
58975;BME280;44751;52.236;5.178;2022-09-27T11:46:28;99710.00;;;9.88;100.00
58975;BME280;44751;52.236;5.178;2022-09-27T11:57:24;99722.94;;;9.50;100.00
58975;BME280;44751;52.236;5.178;2022-09-27T12:05:37;99725.19;;;9.47;100.00
58975;BME280;44751;52.236;5.178;2022-09-27T12:08:25;99722.81;;;9.30;100.00
58975;BME280;44751;52.236;5.178;2022-09-27T12:11:02;99726.06;;;9.19;100.00
58975;BME280;44751;52.236;5.178;2022-09-27T12:13:40;99728.56;;;9.20;100.00
58975;BME280;44751;52.236;5.178;2022-09-27T12:16:10;99721.75;;;9.24;100.00
58975;BME280;44751;52.236;5.178;2022-09-27T12:18:41;99731.38;;;9.40;100.00
58975;BME280;44751;52.236;5.178;2022-09-27T12:21:10;99730.69;;;9.32;100.00
58975;BME280;44751;52.236;5.178;2022-09-27T12:26:16;99732.00;;;9.07;100.00
58975;BME280;44751;52.236;5.178;2022-09-27T12:34:47;99732.41;;;9.04;100.00
58975;BME280;44751;52.236;5.178;2022-09-27T12:37:26;99729.47;;;8.99;100.00
58975;BME280;44751;52.236;5.178;2022-09-27T12:40:15;99720.78;;;8.97;100.00
58975;BME280;44751;52.236;5.178;2022-09-27T12:45:59;99719.56;;;9.06;100.00
58975;BME280;44751;52.236;5.178;2022-09-27T12:51:21;99719.38;;;9.08;100.00
58975;BME280;44751;52.236;5.178;2022-09-27T12:56:51;99716.69;;;9.08;100.00
58975;BME280;44751;52.236;5.178;2022-09-27T13:05:22;99715.78;;;8.94;100.00
58975;BME280;44751;52.236;5.178;2022-09-27T13:10:41;99701.16;;;9.10;100.00
58975;BME280;44751;52.236;5.178;2022-09-27T13:13:16;99706.66;;;9.23;100.00
58975;BME280;44751;52.236;5.178;2022-09-27T13:15:46;99708.09;;;9.26;100.00
58975;BME280;44751;52.236;5.178;2022-09-27T13:21:06;99697.63;;;9.02;100.00
58975;BME280;44751;52.236;5.178;2022-09-27T13:26:02;99688.75;;;9.51;100.00
58975;BME280;44751;52.236;5.178;2022-09-27T13:31:10;99697.19;;;10.03;100.00
58975;BME280;44751;52.236;5.178;2022-09-27T13:33:52;99688.50;;;10.35;100.00
58975;BME280;44751;52.236;5.178;2022-09-27T13:36:32;99684.59;;;10.78;100.00
58975;BME280;44751;52.236;5.178;2022-09-27T13:41:29;99677.53;;;10.77;100.00
58975;BME280;44751;52.236;5.178;2022-09-27T13:44:34;99686.03;;;10.88;100.00
58975;BME280;44751;52.236;5.178;2022-09-27T13:53:05;99664.38;;;11.08;100.00
58975;BME280;44751;52.236;5.178;2022-09-27T13:55:48;99671.38;;;11.36;100.00
58975;BME280;44751;52.236;5.178;2022-09-27T14:00:48;99652.47;;;11.36;100.00
58975;BME280;44751;52.236;5.178;2022-09-27T14:03:31;99653.00;;;10.92;100.00
58975;BME280;44751;52.236;5.178;2022-09-27T14:06:03;99653.06;;;10.38;100.00
58975;BME280;44751;52.236;5.178;2022-09-27T14:08:46;99645.41;;;10.49;100.00
58975;BME280;44751;52.236;5.178;2022-09-27T14:11:19;99646.63;;;10.39;100.00
58975;BME280;44751;52.236;5.178;2022-09-27T14:13:48;99638.34;;;10.48;100.00
58975;BME280;44751;52.236;5.178;2022-09-27T14:16:16;99644.59;;;10.48;100.00
58975;BME280;44751;52.236;5.178;2022-09-27T14:18:50;99649.13;;;10.27;100.00
58975;BME280;44751;52.236;5.178;2022-09-27T14:21:32;99674.59;;;10.18;100.00
58975;BME280;44751;52.236;5.178;2022-09-27T14:24:19;99683.66;;;9.83;100.00
58975;BME280;44751;52.236;5.178;2022-09-27T14:26:47;99681.72;;;9.50;100.00
58975;BME280;44751;52.236;5.178;2022-09-27T14:29:19;99643.47;;;9.19;100.00
58975;BME280;44751;52.236;5.178;2022-09-27T14:31:46;99622.31;;;9.09;100.00
58975;BME280;44751;52.236;5.178;2022-09-27T14:34:28;99639.16;;;9.25;100.00
58975;BME280;44751;52.236;5.178;2022-09-27T14:36:54;99632.75;;;9.26;100.00
58975;BME280;44751;52.236;5.178;2022-09-27T14:39:38;99633.22;;;9.36;100.00
58975;BME280;44751;52.236;5.178;2022-09-27T14:42:18;99629.28;;;9.46;100.00
58975;BME280;44751;52.236;5.178;2022-09-27T14:44:46;99629.53;;;9.64;100.00
58975;BME280;44751;52.236;5.178;2022-09-27T14:47:22;99628.09;;;9.62;100.00
58975;BME280;44751;52.236;5.178;2022-09-27T14:52:25;99616.06;;;9.58;100.00
58975;BME280;44751;52.236;5.178;2022-09-27T14:55:14;99618.34;;;9.61;100.00
58975;BME280;44751;52.236;5.178;2022-09-27T14:57:46;99611.13;;;9.68;100.00
58975;BME280;44751;52.236;5.178;2022-09-27T15:00:21;99616.75;;;9.87;100.00
58975;BME280;44751;52.236;5.178;2022-09-27T15:02:51;99624.22;;;9.98;100.00
58975;BME280;44751;52.236;5.178;2022-09-27T15:05:22;99618.63;;;10.06;100.00
58975;BME280;44751;52.236;5.178;2022-09-27T15:07:50;99613.63;;;9.97;100.00
58975;BME280;44751;52.236;5.178;2022-09-27T15:10:21;99615.31;;;10.04;100.00
58975;BME280;44751;52.236;5.178;2022-09-27T15:12:50;99614.88;;;9.94;100.00
58975;BME280;44751;52.236;5.178;2022-09-27T15:15:21;99619.47;;;10.00;100.00
58975;BME280;44751;52.236;5.178;2022-09-27T15:17:48;99614.91;;;10.01;100.00
58975;BME280;44751;52.236;5.178;2022-09-27T15:20:27;99608.88;;;9.85;100.00
58975;BME280;44751;52.236;5.178;2022-09-27T15:22:57;99600.56;;;9.80;100.00
58975;BME280;44751;52.236;5.178;2022-09-27T15:25:42;99604.94;;;9.81;100.00
58975;BME280;44751;52.236;5.178;2022-09-27T15:28:22;99601.41;;;9.67;100.00
58975;BME280;44751;52.236;5.178;2022-09-27T15:30:54;99600.53;;;9.60;100.00
58975;BME280;44751;52.236;5.178;2022-09-27T15:33:27;99597.03;;;9.66;100.00
58975;BME280;44751;52.236;5.178;2022-09-27T15:35:57;99598.31;;;9.77;100.00
58975;BME280;44751;52.236;5.178;2022-09-27T15:38:30;99594.78;;;9.97;100.00
58975;BME280;44751;52.236;5.178;2022-09-27T15:41:04;99590.03;;;9.85;100.00
58975;BME280;44751;52.236;5.178;2022-09-27T15:43:47;99597.91;;;10.00;100.00
58975;BME280;44751;52.236;5.178;2022-09-27T15:48:40;99592.09;;;10.03;100.00
58975;BME280;44751;52.236;5.178;2022-09-27T15:52:00;99596.22;;;9.92;100.00
58975;BME280;44751;52.236;5.178;2022-09-27T15:54:25;99589.81;;;10.07;100.00
58975;BME280;44751;52.236;5.178;2022-09-27T15:56:55;99585.69;;;9.98;100.00
58975;BME280;44751;52.236;5.178;2022-09-27T15:59:28;99581.31;;;9.97;100.00
58975;BME280;44751;52.236;5.178;2022-09-27T16:02:01;99583.59;;;10.06;100.00
58975;BME280;44751;52.236;5.178;2022-09-27T16:04:28;99577.78;;;10.03;100.00
58975;BME280;44751;52.236;5.178;2022-09-27T16:07:00;99579.44;;;9.97;100.00
58975;BME280;44751;52.236;5.178;2022-09-27T16:09:27;99574.06;;;10.11;100.00
58975;BME280;44751;52.236;5.178;2022-09-27T16:11:58;99574.69;;;10.13;100.00
58975;BME280;44751;52.236;5.178;2022-09-27T16:14:38;99572.59;;;10.15;100.00
58975;BME280;44751;52.236;5.178;2022-09-27T16:17:09;99571.16;;;10.12;100.00
58975;BME280;44751;52.236;5.178;2022-09-27T16:19:36;99584.22;;;10.15;100.00
58975;BME280;44751;52.236;5.178;2022-09-27T16:22:03;99586.50;;;10.12;100.00
58975;BME280;44751;52.236;5.178;2022-09-27T16:24:30;99592.31;;;10.15;100.00
58975;BME280;44751;52.236;5.178;2022-09-27T16:26:57;99597.50;;;10.10;100.00